Time;durP1;ratioP1;P1;durP2;ratioP2;P2;SDS_P1;SDS_P2;PMS_P1;PMS_P2;Temp;Humidity;BMP_temperature;BMP_pressure;BME280_temperature;BME280_humidity;BME280_pressure;Samples;Min_cycle;Max_cycle;Signal;HPM_P1;HPM_P2
2022/04/23 00:00:33;;;;;;;68.75;10.65;;;;;;;8.78;100.00;96826.59;5003047;28;20081;-55
2022/04/23 00:02:59;;;;;;;72.95;10.05;;;;;;;8.98;100.00;96824.69;5009641;28;20041;-55
2022/04/23 00:05:25;;;;;;;78.93;9.95;;;;;;;8.95;100.00;96828.31;5002154;28;20636;-56
2022/04/23 00:07:50;;;;;;;68.07;9.95;;;;;;;8.71;100.00;96829.59;5003133;28;20487;-56
2022/04/23 00:10:15;;;;;;;81.53;11.02;;;;;;;8.81;100.00;96825.59;5003402;28;20061;-57
2022/04/23 00:12:42;;;;;;;77.25;10.57;;;;;;;8.79;100.00;96830.88;5005900;28;20103;-57
2022/04/23 00:15:08;;;;;;;68.63;9.40;;;;;;;8.97;100.00;96823.88;5005115;28;20030;-55
2022/04/23 00:17:34;;;;;;;82.50;10.50;;;;;;;8.93;100.00;96822.31;5006576;28;20060;-55
2022/04/23 00:20:00;;;;;;;82.38;10.05;;;;;;;9.18;100.00;96824.47;5003549;28;20026;-57
2022/04/23 00:22:25;;;;;;;80.65;10.38;;;;;;;8.91;100.00;96820.75;5003495;28;20038;-55
2022/04/23 00:24:51;;;;;;;102.68;11.73;;;;;;;8.94;100.00;96824.03;5004028;28;20034;-56
2022/04/23 00:27:16;;;;;;;78.03;10.80;;;;;;;9.06;100.00;96819.91;5003917;28;20054;-56
2022/04/23 00:29:42;;;;;;;75.00;10.05;;;;;;;8.82;100.00;96832.47;5003296;28;20030;-57
2022/04/23 00:32:08;;;;;;;86.80;10.98;;;;;;;8.95;100.00;96819.66;5001373;28;20136;-57
2022/04/23 00:34:33;;;;;;;87.00;11.70;;;;;;;8.79;100.00;96817.03;5003865;28;20163;-56
2022/04/23 00:36:59;;;;;;;88.95;11.05;;;;;;;8.93;100.00;96818.91;5002588;28;20597;-57
2022/04/23 00:39:24;;;;;;;93.55;11.52;;;;;;;9.07;100.00;96819.84;5003803;28;20026;-56
2022/04/23 00:41:52;;;;;;;79.60;9.70;;;;;;;8.97;100.00;96816.06;5000788;28;20037;-56
2022/04/23 00:44:18;;;;;;;69.07;9.80;;;;;;;8.70;100.00;96817.53;5002292;28;20116;-57
2022/04/23 00:46:44;;;;;;;80.28;10.07;;;;;;;9.11;100.00;96817.06;5002612;28;20049;-56
2022/04/23 00:49:10;;;;;;;70.90;9.90;;;;;;;9.22;100.00;96819.94;5001660;28;20064;-56
2022/04/23 00:51:36;;;;;;;74.95;9.40;;;;;;;9.17;100.00;96816.75;5002839;28;20041;-58
2022/04/23 00:54:10;;;;;;;78.10;10.15;;;;;;;8.94;100.00;96815.38;5000773;28;20486;-57
2022/04/23 00:56:37;;;;;;;70.95;9.93;;;;;;;9.07;100.00;96811.19;5003145;28;20048;-58
2022/04/23 00:59:11;;;;;;;71.82;9.25;;;;;;;9.19;100.00;96817.50;5001127;28;20092;-57
2022/04/23 01:01:39;;;;;;;68.40;9.75;;;;;;;9.19;100.00;96814.88;5003739;28;20046;-57
2022/04/23 01:04:06;;;;;;;78.55;10.00;;;;;;;8.83;100.00;96813.34;5002655;28;20026;-56
2022/04/23 01:06:34;;;;;;;77.13;9.85;;;;;;;9.36;100.00;96808.78;5002273;28;20046;-56
2022/04/23 01:09:02;;;;;;;79.15;9.90;;;;;;;9.16;100.00;96815.91;5004040;28;20460;-58
2022/04/23 01:11:28;;;;;;;77.82;10.10;;;;;;;9.36;100.00;96812.22;5003363;28;20038;-57
2022/04/23 01:13:53;;;;;;;73.13;9.63;;;;;;;9.19;100.00;96814.88;5004569;28;20044;-56
2022/04/23 01:16:19;;;;;;;70.60;9.40;;;;;;;9.03;100.00;96810.53;5003285;28;20639;-56
2022/04/23 01:18:44;;;;;;;70.95;9.40;;;;;;;9.53;100.00;96818.25;5002641;28;20025;-57
2022/04/23 01:21:10;;;;;;;71.90;9.63;;;;;;;9.29;100.00;96823.06;5001433;28;20624;-57
2022/04/23 01:23:40;;;;;;;73.82;9.82;;;;;;;9.65;100.00;96817.56;5001229;28;20542;-56
2022/04/23 01:26:08;;;;;;;82.97;10.20;;;;;;;9.47;100.00;96816.00;4997818;28;20065;-58
2022/04/23 01:28:37;;;;;;;63.58;9.38;;;;;;;9.33;100.00;96806.34;5004379;28;20038;-56
2022/04/23 01:31:04;;;;;;;73.95;9.25;;;;;;;9.31;100.00;96818.59;5000220;28;20040;-56
2022/04/23 01:33:32;;;;;;;76.05;9.80;;;;;;;9.32;100.00;96820.25;5003487;28;20037;-57
2022/04/23 01:35:57;;;;;;;68.18;9.63;;;;;;;9.36;100.00;96811.38;4999867;28;20034;-55
2022/04/23 01:38:23;;;;;;;53.13;9.02;;;;;;;8.98;100.00;96811.69;5003978;28;20026;-56
2022/04/23 01:40:48;;;;;;;70.80;9.88;;;;;;;8.86;100.00;96818.41;5002460;28;20494;-57
2022/04/23 01:43:14;;;;;;;77.43;9.82;;;;;;;8.83;100.00;96814.19;5003585;28;20029;-62
2022/04/23 01:45:39;;;;;;;61.13;9.48;;;;;;;8.84;100.00;96820.22;5002959;28;20050;-57
2022/04/23 01:48:06;;;;;;;91.30;10.88;;;;;;;8.71;100.00;96829.59;5002057;28;20028;-57
2022/04/23 01:50:32;;;;;;;64.90;9.75;;;;;;;8.79;100.00;96827.44;5000460;28;20034;-56
2022/04/23 01:52:57;;;;;;;74.50;10.38;;;;;;;8.86;100.00;96823.59;5003593;28;20026;-57
2022/04/23 01:55:23;;;;;;;84.22;10.55;;;;;;;8.56;100.00;96829.47;5001788;28;20435;-57
2022/04/23 01:57:48;;;;;;;60.42;9.32;;;;;;;8.74;100.00;96825.06;5000934;28;20116;-57
2022/04/23 02:00:14;;;;;;;78.57;10.20;;;;;;;8.63;100.00;96832.59;5001668;28;20033;-58
2022/04/23 02:02:43;;;;;;;78.03;10.50;;;;;;;8.41;100.00;96832.81;5004335;28;20368;-56
2022/04/23 02:05:10;;;;;;;88.88;11.55;;;;;;;8.28;100.00;96833.44;4999864;28;20523;-56
2022/04/23 02:07:45;;;;;;;60.85;9.93;;;;;;;8.46;100.00;96830.88;5000602;28;20029;-56
2022/04/23 02:10:13;;;;;;;64.53;9.80;;;;;;;8.36;100.00;96835.63;4999305;28;20098;-57
2022/04/23 02:12:39;;;;;;;77.57;10.52;;;;;;;8.24;100.00;96831.91;5000046;28;20539;-57
2022/04/23 02:15:13;;;;;;;83.68;10.88;;;;;;;8.24;100.00;96836.28;5000363;28;20026;-56
2022/04/23 02:17:42;;;;;;;83.30;10.50;;;;;;;8.47;100.00;96829.94;5000923;28;20045;-56
2022/04/23 02:20:13;;;;;;;78.05;10.85;;;;;;;8.40;100.00;96826.78;5000693;28;20026;-57
2022/04/23 02:22:38;;;;;;;70.53;10.43;;;;;;;8.24;100.00;96831.09;5004895;28;20692;-56
2022/04/23 02:25:05;;;;;;;88.50;11.40;;;;;;;8.38;100.00;96835.56;5002557;28;20030;-56
2022/04/23 02:27:48;;;;;;;86.10;10.15;;;;;;;8.64;100.00;96834.28;5002804;28;20040;-56
2022/04/23 02:30:14;;;;;;;;;;;;;;;8.76;100.00;96832.78;4999384;28;20025;-57
2022/04/23 02:32:41;;;;;;;85.03;10.73;;;;;;;8.75;100.00;96825.91;5001152;28;19931;-56
2022/04/23 02:35:07;;;;;;;79.53;10.68;;;;;;;8.85;100.00;96824.50;5002772;28;20025;-57
2022/04/23 02:37:35;;;;;;;72.13;10.77;;;;;;;8.71;100.00;96824.38;5002536;28;20040;-57
2022/04/23 02:40:05;;;;;;;88.72;11.23;;;;;;;8.55;100.00;96830.41;5001163;28;20034;-55
2022/04/23 02:42:31;;;;;;;74.95;11.32;;;;;;;8.14;100.00;96830.69;5002938;28;20046;-56
2022/04/23 02:45:00;;;;;;;111.38;13.18;;;;;;;7.93;100.00;96839.56;5003002;28;20037;-55
2022/04/23 02:47:27;;;;;;;85.57;11.50;;;;;;;7.78;100.00;96844.56;4999946;28;20886;-56
2022/04/23 02:49:53;;;;;;;91.75;12.07;;;;;;;7.95;100.00;96842.91;5000527;28;20029;-55
2022/04/23 02:52:18;;;;;;;75.38;11.40;;;;;;;7.88;100.00;96844.97;5001056;28;20125;-55
2022/04/23 02:54:43;;;;;;;116.75;12.90;;;;;;;8.01;100.00;96843.44;5000461;28;20025;-56
2022/04/23 02:57:11;;;;;;;68.57;10.30;;;;;;;8.13;100.00;96839.41;4999453;28;20108;-55
2022/04/23 02:59:36;;;;;;;64.18;10.75;;;;;;;8.05;100.00;96841.53;5002194;28;20033;-56
2022/04/23 03:02:01;;;;;;;72.18;11.18;;;;;;;8.15;100.00;96840.16;4998791;28;20151;-56
2022/04/23 03:04:27;;;;;;;69.05;11.23;;;;;;;8.05;100.00;96836.34;5003114;28;20431;-56
2022/04/23 03:06:54;;;;;;;82.47;12.07;;;;;;;8.04;100.00;96845.06;4999746;28;20048;-55
2022/04/23 03:09:20;;;;;;;76.10;12.00;;;;;;;8.04;100.00;96856.28;4999046;28;20549;-55
2022/04/23 03:11:47;;;;;;;59.97;11.52;;;;;;;8.02;100.00;96849.50;5005167;28;20046;-56
2022/04/23 03:14:12;;;;;;;72.53;11.73;;;;;;;8.00;100.00;96849.56;5003960;28;20119;-55
2022/04/23 03:16:38;;;;;;;77.45;11.55;;;;;;;8.00;100.00;96852.16;5002207;28;20081;-55
2022/04/23 03:19:03;;;;;;;87.65;12.65;;;;;;;8.14;100.00;96846.28;5004780;28;20104;-55
2022/04/23 03:21:28;;;;;;;74.25;12.13;;;;;;;8.08;100.00;96851.78;5005090;28;20041;-56
2022/04/23 03:23:54;;;;;;;73.82;12.30;;;;;;;8.01;100.00;96850.38;5004195;28;20095;-56
2022/04/23 03:26:19;;;;;;;75.22;12.30;;;;;;;8.06;100.00;96849.25;5003495;28;20042;-55
2022/04/23 03:28:44;;;;;;;79.90;11.57;;;;;;;8.19;100.00;96843.47;5006609;28;20022;-55
2022/04/23 03:31:10;;;;;;;77.70;12.07;;;;;;;8.09;100.00;96853.47;5007806;28;20571;-55
2022/04/23 03:33:35;;;;;;;80.40;12.13;;;;;;;7.99;100.00;96845.28;5003887;28;20512;-55
2022/04/23 03:36:02;;;;;;;64.07;11.85;;;;;;;8.17;100.00;96838.34;5001598;28;20125;-56
2022/04/23 03:38:27;;;;;;;70.78;11.18;;;;;;;8.19;100.00;96836.50;5005537;28;20033;-55
2022/04/23 03:40:55;;;;;;;76.15;12.05;;;;;;;8.07;100.00;96839.72;5005711;28;20052;-55
2022/04/23 03:43:22;;;;;;;75.97;12.48;;;;;;;8.02;100.00;96844.28;5003861;28;20018;-56
2022/04/23 03:45:47;;;;;;;82.50;12.98;;;;;;;8.05;100.00;96842.41;5003762;28;20042;-56
2022/04/23 03:48:14;;;;;;;76.20;12.43;;;;;;;8.20;100.00;96835.59;5003359;28;20029;-55
2022/04/23 03:50:42;;;;;;;72.00;12.18;;;;;;;8.06;100.00;96838.03;5002890;28;20115;-55
2022/04/23 03:53:08;;;;;;;71.85;12.93;;;;;;;7.94;100.00;96836.03;5004266;28;20033;-55
2022/04/23 03:55:34;;;;;;;76.10;12.95;;;;;;;7.89;100.00;96836.28;5003111;28;20045;-55
2022/04/23 03:58:00;;;;;;;66.22;11.45;;;;;;;7.99;100.00;96831.47;5004770;28;20025;-55
2022/04/23 04:00:26;;;;;;;86.60;13.90;;;;;;;8.18;100.00;96832.22;5003253;28;20042;-55
2022/04/23 04:02:54;;;;;;;87.45;14.27;;;;;;;8.23;100.00;96834.59;5004714;28;20049;-55
2022/04/23 04:05:20;;;;;;;88.13;14.07;;;;;;;8.50;100.00;96829.78;5004226;28;20506;-56
2022/04/23 04:07:47;;;;;;;83.93;13.95;;;;;;;8.60;100.00;96825.81;5002872;28;20029;-55
2022/04/23 04:10:15;;;;;;;80.63;14.60;;;;;;;8.65;100.00;96835.94;5004017;28;20026;-55
2022/04/23 04:12:41;;;;;;;88.07;13.38;;;;;;;8.51;100.00;96828.88;5003018;28;20063;-55
2022/04/23 04:15:08;;;;;;;88.80;15.10;;;;;;;8.61;100.00;96829.22;5006244;28;20026;-56
2022/04/23 04:17:34;;;;;;;84.90;14.45;;;;;;;8.82;100.00;96819.47;5004328;28;20038;-56
2022/04/23 04:20:00;;;;;;;80.57;14.85;;;;;;;8.88;100.00;96827.78;5004672;28;20530;-55
2022/04/23 04:22:26;;;;;;;77.18;14.45;;;;;;;8.95;100.00;96817.91;5000200;28;20045;-55
2022/04/23 04:24:51;;;;;;;115.15;16.38;;;;;;;9.01;100.00;96814.16;5003863;28;20021;-55
2022/04/23 04:27:17;;;;;;;84.22;15.32;;;;;;;8.93;100.00;96814.53;5002360;28;20045;-56
2022/04/23 04:29:43;;;;;;;91.05;15.75;;;;;;;8.98;100.00;96814.28;5002903;28;20446;-56
2022/04/23 04:32:08;;;;;;;96.05;15.75;;;;;;;8.82;100.00;96812.53;5005987;28;20100;-56
2022/04/23 04:34:34;;;;;;;89.25;15.77;;;;;;;9.03;100.00;96815.72;5005892;28;20022;-54
2022/04/23 04:37:02;;;;;;;99.68;15.95;;;;;;;9.15;100.00;96813.38;5002921;28;20726;-54
2022/04/23 04:39:28;;;;;;;89.68;15.75;;;;;;;9.33;100.00;96808.94;5002061;28;20146;-56
2022/04/23 04:41:53;;;;;;;95.03;15.82;;;;;;;9.50;100.00;96808.84;5001950;28;20627;-55
2022/04/23 04:44:18;;;;;;;85.63;15.27;;;;;;;9.48;100.00;96805.47;5002295;28;20049;-55
2022/04/23 04:46:44;;;;;;;90.43;16.70;;;;;;;9.27;100.00;96797.94;5000542;28;20049;-55
2022/04/23 04:49:09;;;;;;;88.18;15.93;;;;;;;9.35;100.00;96810.53;5004492;28;20840;-56
2022/04/23 04:51:36;;;;;;;79.43;16.17;;;;;;;9.45;100.00;96810.88;5003240;28;20045;-55
2022/04/23 04:54:05;;;;;;;94.35;15.82;;;;;;;9.64;100.00;96819.31;5003149;28;20026;-55
2022/04/23 04:56:31;;;;;;;85.43;15.70;;;;;;;9.56;100.00;96812.88;5003333;28;20041;-56
2022/04/23 04:58:56;;;;;;;84.05;16.67;;;;;;;9.67;100.00;96820.94;5003356;28;20033;-55
2022/04/23 05:01:22;;;;;;;81.72;16.17;;;;;;;9.79;100.00;96820.22;5003492;28;20045;-56
2022/04/23 05:03:47;;;;;;;86.50;15.88;;;;;;;10.04;100.00;96821.44;5003837;28;20900;-56
2022/04/23 05:06:12;;;;;;;81.82;15.80;;;;;;;9.96;100.00;96826.22;5001011;28;20291;-56
2022/04/23 05:08:38;;;;;;;95.85;17.10;;;;;;;9.90;100.00;96826.59;5003440;28;20030;-55
2022/04/23 05:11:04;;;;;;;97.63;17.42;;;;;;;9.96;100.00;96831.44;5003501;28;20062;-56
2022/04/23 05:13:30;;;;;;;86.45;16.95;;;;;;;9.75;100.00;96838.72;5003209;28;20034;-56
2022/04/23 05:15:56;;;;;;;97.05;17.13;;;;;;;10.02;100.00;96834.53;5001438;28;20037;-56
2022/04/23 05:18:21;;;;;;;93.65;16.08;;;;;;;10.08;100.00;96830.75;5002851;28;20022;-55
2022/04/23 05:20:47;;;;;;;86.47;18.45;;;;;;;9.98;100.00;96830.44;5001977;28;20088;-55
2022/04/23 05:23:13;;;;;;;83.78;16.63;;;;;;;10.19;100.00;96833.56;5003062;28;20034;-55
2022/04/23 05:25:39;;;;;;;81.93;16.35;;;;;;;10.12;100.00;96827.03;5000843;28;20092;-56
2022/04/23 05:28:04;;;;;;;89.55;17.35;;;;;;;10.19;100.00;96823.13;5004784;28;20034;-55
2022/04/23 05:30:29;;;;;;;97.88;17.00;;;;;;;10.63;100.00;96818.03;5005809;28;20038;-56
2022/04/23 05:32:55;;;;;;;85.70;17.02;;;;;;;10.78;100.00;96825.75;5003154;28;20122;-56
2022/04/23 05:35:20;;;;;;;89.50;17.92;;;;;;;10.73;100.00;96821.75;5002762;28;21044;-55
2022/04/23 05:37:45;;;;;;;85.07;16.73;;;;;;;10.52;100.00;96824.72;5001843;28;20029;-55
2022/04/23 05:40:11;;;;;;;84.32;16.98;;;;;;;10.78;100.00;96830.16;5002970;28;20080;-55
2022/04/23 05:42:36;;;;;;;97.30;17.65;;;;;;;11.03;100.00;96826.03;5003322;28;20026;-55
2022/04/23 05:45:02;;;;;;;77.22;16.90;;;;;;;10.99;100.00;96821.03;5002665;28;20088;-55
2022/04/23 05:47:27;;;;;;;81.38;16.80;;;;;;;11.16;100.00;96817.38;5002003;28;20062;-55
2022/04/23 05:49:52;;;;;;;80.97;16.92;;;;;;;10.93;100.00;96817.94;5002495;28;20021;-56
2022/04/23 05:52:18;;;;;;;84.15;15.73;;;;;;;11.31;100.00;96818.19;5003136;28;20066;-56
2022/04/23 05:54:43;;;;;;;101.03;17.67;;;;;;;11.21;100.00;96818.84;5009052;28;20792;-55
2022/04/23 05:57:08;;;;;;;72.50;15.77;;;;;;;11.23;100.00;96825.66;4998463;28;20033;-57
2022/04/23 05:59:34;;;;;;;92.40;14.98;;;;;;;11.66;100.00;96822.94;5003665;28;20131;-56
2022/04/23 06:02:00;;;;;;;73.50;16.42;;;;;;;11.68;100.00;96818.44;5000907;28;20045;-56
2022/04/23 06:04:29;;;;;;;70.72;16.58;;;;;;;11.52;100.00;96817.75;5004429;28;20117;-56
2022/04/23 06:06:55;;;;;;;85.85;16.23;;;;;;;11.97;100.00;96813.16;4998773;28;20037;-55
2022/04/23 06:09:20;;;;;;;77.15;14.80;;;;;;;12.65;100.00;96819.94;5001651;28;20030;-56
2022/04/23 06:11:46;;;;;;;83.07;13.80;;;;;;;13.06;100.00;96815.38;4999787;28;20046;-58
2022/04/23 06:14:11;;;;;;;83.85;15.88;;;;;;;13.04;100.00;96807.63;5003809;28;20117;-56
2022/04/23 06:16:37;;;;;;;67.47;14.48;;;;;;;13.73;100.00;96811.53;5003098;28;20112;-56
2022/04/23 06:19:03;;;;;;;77.88;13.50;;;;;;;15.31;100.00;96814.50;5003936;28;20079;-57
2022/04/23 06:21:28;;;;;;;93.78;14.13;;;;;;;17.41;100.00;96804.09;5001243;28;20393;-57
2022/04/23 06:23:53;;;;;;;78.45;11.60;;;;;;;20.48;78.78;96794.78;5001541;28;20186;-57
2022/04/23 06:26:19;;;;;;;70.18;12.90;;;;;;;19.72;71.09;96795.22;5001188;28;20137;-57
2022/04/23 06:28:44;;;;;;;67.43;11.93;;;;;;;20.50;67.35;96791.97;5002110;28;20468;-56
2022/04/23 06:31:10;;;;;;;53.90;11.43;;;;;;;21.03;61.67;96792.81;5003089;28;20038;-56
2022/04/23 06:33:35;;;;;;;66.55;11.88;;;;;;;20.94;60.12;96800.72;5000509;28;20029;-56
2022/04/23 06:36:01;;;;;;;60.75;12.35;;;;;;;20.89;58.70;96807.47;5001647;28;20045;-58
2022/04/23 06:38:26;;;;;;;72.78;12.82;;;;;;;19.37;62.59;96804.75;5000136;28;20030;-59
2022/04/23 06:40:51;;;;;;;62.92;11.23;;;;;;;21.22;59.24;96797.88;5001407;28;20038;-59
2022/04/23 06:43:17;;;;;;;72.88;13.75;;;;;;;21.34;56.70;96806.38;5003738;28;20569;-57
2022/04/23 06:45:43;;;;;;;70.50;13.77;;;;;;;21.33;58.67;96805.53;5004171;28;20045;-58
2022/04/23 06:48:08;;;;;;;69.38;14.30;;;;;;;21.05;58.26;96822.66;5007928;28;20036;-58
2022/04/23 06:50:35;;;;;;;63.55;14.32;;;;;;;20.64;59.00;96812.63;5002864;28;20150;-57
2022/04/23 06:53:01;;;;;;;73.60;14.57;;;;;;;21.13;58.44;96804.13;5003168;28;20033;-59
2022/04/23 06:55:27;;;;;;;77.13;15.32;;;;;;;20.41;57.75;96804.31;5002835;28;20029;-57
2022/04/23 06:57:52;;;;;;;65.88;14.02;;;;;;;20.75;56.81;96811.53;5006216;28;20026;-58
2022/04/23 07:00:19;;;;;;;81.55;14.88;;;;;;;23.73;51.15;96807.97;5007117;28;20041;-57
2022/04/23 07:02:44;;;;;;;65.82;13.80;;;;;;;20.25;56.99;96820.06;5005050;28;20025;-57
2022/04/23 07:05:10;;;;;;;60.05;14.25;;;;;;;20.66;58.71;96815.09;5004649;28;20018;-59
2022/04/23 07:07:35;;;;;;;70.20;14.98;;;;;;;21.46;54.79;96821.03;5005434;28;20034;-58
2022/04/23 07:10:00;;;;;;;71.35;14.88;;;;;;;22.49;50.81;96810.13;5003780;28;20475;-59
2022/04/23 07:12:26;;;;;;;66.95;14.90;;;;;;;21.86;52.96;96808.06;5005971;28;20050;-59
2022/04/23 07:14:51;;;;;;;90.93;16.45;;;;;;;20.35;55.74;96818.19;5003805;28;20392;-58
2022/04/23 07:17:26;;;;;;;74.63;15.23;;;;;;;17.64;66.80;96827.59;5006298;28;20486;-58
2022/04/23 07:19:53;;;;;;;69.15;14.18;;;;;;;16.55;81.44;96819.34;5006094;28;20049;-58
2022/04/23 07:22:19;;;;;;;72.05;15.32;;;;;;;16.13;84.76;96828.06;5006054;28;20575;-58
2022/04/23 07:24:45;;;;;;;93.05;16.98;;;;;;;15.67;96.08;96831.75;5006761;28;20033;-57
2022/04/23 07:27:11;;;;;;;66.47;16.50;;;;;;;14.42;100.00;96833.50;5006601;28;20088;-58
2022/04/23 07:29:36;;;;;;;77.80;15.82;;;;;;;14.48;100.00;96828.75;5006835;28;20036;-58
2022/04/23 07:32:02;;;;;;;71.03;16.15;;;;;;;14.02;100.00;96830.38;5007224;28;20088;-57
2022/04/23 07:37:31;;;;;;;69.78;15.90;;;;;;;14.07;100.00;96829.09;5002550;28;20143;-58
2022/04/23 07:40:10;;;;;;;78.07;16.52;;;;;;;13.92;100.00;96825.00;5005678;28;20033;-57
2022/04/23 07:42:36;;;;;;;69.63;15.93;;;;;;;13.75;100.00;96825.38;5004725;28;20034;-57
2022/04/23 07:45:01;;;;;;;75.40;15.05;;;;;;;14.12;100.00;96822.69;5003702;28;20065;-56
2022/04/23 07:47:28;;;;;;;67.50;14.85;;;;;;;13.69;100.00;96831.91;5002117;28;20061;-56
2022/04/23 07:49:53;;;;;;;77.15;15.98;;;;;;;13.58;100.00;96827.47;5004750;28;20053;-58
2022/04/23 07:52:19;;;;;;;72.60;15.73;;;;;;;13.58;100.00;96822.22;5005742;28;20070;-57
2022/04/23 07:54:45;;;;;;;107.82;17.30;;;;;;;13.39;100.00;96821.84;5005737;28;20022;-58
2022/04/23 07:57:11;;;;;;;73.03;15.80;;;;;;;13.52;100.00;96825.25;5002405;28;20088;-58
2022/04/23 07:59:41;;;;;;;78.60;17.08;;;;;;;13.26;100.00;96832.31;5004147;28;20025;-57
2022/04/23 08:02:08;;;;;;;75.40;16.55;;;;;;;13.19;100.00;96824.06;5003443;28;20045;-57
2022/04/23 08:04:33;;;;;;;70.25;15.93;;;;;;;12.79;100.00;96829.47;5003344;28;20026;-57
2022/04/23 08:06:59;;;;;;;120.57;19.10;;;;;;;12.89;100.00;96829.66;4999113;28;20056;-58
2022/04/23 08:09:24;;;;;;;77.38;18.15;;;;;;;12.66;100.00;96828.59;5002822;28;20495;-59
2022/04/23 08:11:49;;;;;;;96.80;20.92;;;;;;;12.18;100.00;96831.78;5004140;28;20038;-57
2022/04/23 08:14:15;;;;;;;88.68;18.90;;;;;;;12.52;100.00;96827.75;5004248;28;20755;-58
2022/04/23 08:16:41;;;;;;;89.82;17.95;;;;;;;12.30;100.00;96823.13;5002251;28;20041;-57
2022/04/23 08:19:08;;;;;;;89.72;20.92;;;;;;;12.25;100.00;96834.84;5003971;28;20057;-59
2022/04/23 08:21:34;;;;;;;79.57;18.42;;;;;;;12.25;100.00;96825.22;5005042;28;20395;-58
2022/04/23 08:23:59;;;;;;;83.10;19.73;;;;;;;12.01;100.00;96825.06;5001376;28;20762;-57
2022/04/23 08:26:25;;;;;;;94.97;21.60;;;;;;;12.13;100.00;96824.25;5003052;28;20153;-57
2022/04/23 08:31:34;;;;;;;72.13;19.33;;;;;;;12.15;100.00;96819.78;5003290;28;20045;-58
2022/04/23 08:34:00;;;;;;;94.53;20.17;;;;;;;11.75;100.00;96838.00;5003438;28;20025;-57
2022/04/23 08:36:27;;;;;;;104.72;22.95;;;;;;;11.93;100.00;96835.19;5003358;28;20149;-57
2022/04/23 08:38:55;;;;;;;115.60;21.10;;;;;;;11.81;100.00;96831.56;5003186;28;20030;-58
2022/04/23 08:41:23;;;;;;;95.68;22.60;;;;;;;11.80;100.00;96837.72;4999790;28;20048;-58
2022/04/23 08:43:49;;;;;;;117.95;22.98;;;;;;;11.98;100.00;96829.66;5001452;28;20491;-57
2022/04/23 08:46:17;;;;;;;93.22;20.02;;;;;;;11.93;100.00;96827.34;5001465;28;20089;-56
2022/04/23 08:48:49;;;;;;;104.00;21.50;;;;;;;11.92;100.00;96828.28;5001582;28;20384;-57
2022/04/23 08:51:20;;;;;;;76.95;20.55;;;;;;;12.25;100.00;96821.78;5001630;28;20456;-58
2022/04/23 08:53:47;;;;;;;80.82;23.08;;;;;;;12.10;100.00;96826.25;5003479;28;20036;-57
2022/04/23 08:56:13;;;;;;;95.38;19.38;;;;;;;12.44;100.00;96819.63;5002342;28;20038;-58
2022/04/23 08:58:39;;;;;;;85.30;20.05;;;;;;;12.56;100.00;96824.94;5004220;28;20033;-56
2022/04/23 09:01:05;;;;;;;85.28;18.23;;;;;;;12.76;100.00;96818.38;5003679;28;20488;-56
2022/04/23 09:03:31;;;;;;;100.72;20.98;;;;;;;12.81;100.00;96819.72;5003606;28;20029;-58
2022/04/23 09:05:56;;;;;;;88.55;19.52;;;;;;;13.21;100.00;96806.44;5002053;28;20049;-57
2022/04/23 09:08:21;;;;;;;85.35;17.83;;;;;;;13.30;100.00;96812.81;5001055;28;20030;-58
2022/04/23 09:10:51;;;;;;;101.13;19.30;;;;;;;13.54;100.00;96804.19;4999011;28;20046;-59
2022/04/23 09:13:32;;;;;;;78.75;19.25;;;;;;;13.30;100.00;96813.69;5001482;28;20052;-58
2022/04/23 09:24:48;;;;;;;98.35;19.13;;;;;;;13.16;100.00;96815.56;5000810;28;20096;-57
2022/04/23 09:27:15;;;;;;;93.32;20.27;;;;;;;13.07;100.00;96817.06;4999244;28;20256;-57
2022/04/23 09:29:42;;;;;;;78.13;17.05;;;;;;;12.83;100.00;96809.13;5003245;28;20044;-56
2022/04/23 09:32:13;;;;;;;81.35;16.77;;;;;;;13.16;100.00;96816.44;5001955;28;20084;-57
2022/04/23 09:34:38;;;;;;;86.88;17.70;;;;;;;12.85;100.00;96822.97;4999139;28;20029;-57
2022/04/23 09:37:05;;;;;;;81.68;17.05;;;;;;;13.25;100.00;96812.31;5001266;28;20041;-57
2022/04/23 09:39:31;;;;;;;84.95;17.45;;;;;;;13.22;100.00;96821.22;5001039;28;20479;-58
2022/04/23 09:42:17;;;;;;;96.45;18.60;;;;;;;13.13;100.00;96819.25;4999258;28;20077;-58
2022/04/23 09:44:44;;;;;;;111.88;18.50;;;;;;;13.08;100.00;96816.94;4998654;28;20033;-58
2022/04/23 09:47:10;;;;;;;111.65;18.50;;;;;;;13.32;100.00;96813.56;4996801;28;20045;-56
2022/04/23 09:49:36;;;;;;;83.90;16.70;;;;;;;13.56;100.00;96810.97;5000350;28;20041;-56
2022/04/23 09:52:04;;;;;;;91.50;17.67;;;;;;;13.82;100.00;96823.97;4999315;28;20117;-58
2022/04/23 09:54:31;;;;;;;89.28;18.20;;;;;;;13.45;100.00;96811.78;5000894;28;20033;-58
2022/04/23 09:56:57;;;;;;;88.60;17.02;;;;;;;13.35;100.00;96828.25;5000123;28;20117;-58
2022/04/23 09:59:23;;;;;;;76.88;15.68;;;;;;;13.27;100.00;96823.50;5002027;28;20112;-57
2022/04/23 10:01:50;;;;;;;99.00;19.77;;;;;;;12.90;100.00;96826.06;4999140;28;20068;-57
2022/04/23 10:04:21;;;;;;;88.18;16.15;;;;;;;13.61;100.00;96821.97;5000692;28;20018;-57
2022/04/23 10:06:49;;;;;;;94.20;17.52;;;;;;;13.71;100.00;96824.78;5000640;28;20034;-58
2022/04/23 10:09:19;;;;;;;101.05;16.92;;;;;;;13.88;100.00;96818.31;4998942;28;20049;-58
2022/04/23 10:11:48;;;;;;;75.75;15.23;;;;;;;14.48;100.00;96821.72;4997997;28;20052;-58
2022/04/23 10:14:22;;;;;;;92.82;16.60;;;;;;;15.24;100.00;96824.69;4999101;28;20074;-57
2022/04/23 10:16:48;;;;;;;79.20;14.95;;;;;;;14.91;100.00;96812.41;4999353;28;20034;-57
2022/04/23 10:19:15;;;;;;;86.38;16.52;;;;;;;15.24;100.00;96819.44;4999748;28;20022;-57
2022/04/23 10:22:11;;;;;;;83.25;13.93;;;;;;;15.30;100.00;96804.97;5000054;28;20038;-57
2022/04/23 10:24:55;;;;;;;75.30;14.73;;;;;;;15.03;100.00;96814.03;5000708;28;20014;-58
2022/04/23 10:27:25;;;;;;;87.60;15.05;;;;;;;16.52;95.37;96806.44;4996975;28;20116;-57
2022/04/23 10:29:54;;;;;;;77.97;14.50;;;;;;;15.38;100.00;96810.44;4998563;28;20022;-57
2022/04/23 10:32:20;;;;;;;73.85;14.48;;;;;;;15.10;100.00;96812.63;4999606;28;21147;-57
2022/04/23 10:34:46;;;;;;;113.03;16.15;;;;;;;15.38;99.60;96815.69;4998275;28;20105;-57
2022/04/23 10:37:17;;;;;;;84.28;14.95;;;;;;;15.53;99.97;96814.50;4998339;28;20034;-57
2022/04/23 10:39:51;;;;;;;79.82;14.98;;;;;;;15.21;96.61;96823.09;5000206;28;20710;-57
2022/04/23 10:42:24;;;;;;;86.50;14.60;;;;;;;15.55;100.00;96809.94;4998645;28;20092;-58
2022/04/23 10:44:51;;;;;;;132.52;18.50;;;;;;;15.52;100.00;96812.81;4996005;28;20722;-58
2022/04/23 10:47:30;;;;;;;77.07;13.68;;;;;;;15.29;100.00;96808.53;4994833;28;20064;-58
2022/04/23 10:50:23;;;;;;;73.28;15.07;;;;;;;15.04;100.00;96816.56;5000942;28;20025;-58
2022/04/23 10:52:50;;;;;;;86.50;13.90;;;;;;;15.34;100.00;96824.78;4967992;28;21038;-57
2022/04/23 10:55:16;;;;;;;74.82;15.02;;;;;;;14.54;100.00;96815.16;4968563;28;20145;-58
2022/04/23 10:57:53;;;;;;;72.78;16.17;;;;;;;13.53;100.00;96823.47;4970479;28;20031;-59
2022/04/23 11:00:21;;;;;;;75.60;12.90;;;;;;;14.72;100.00;96816.44;4971778;28;20527;-58
2022/04/23 11:02:56;;;;;;;84.75;18.23;;;;;;;13.66;100.00;96804.16;4968904;28;20027;-58
2022/04/23 11:13:46;;;;;;;85.05;17.48;;;;;;;14.53;100.00;96789.88;4970321;28;20045;-59
2022/04/23 11:16:17;;;;;;;74.97;15.32;;;;;;;14.67;100.00;96789.72;4969123;28;20035;-57
2022/04/23 11:18:45;;;;;;;77.15;14.80;;;;;;;14.75;100.00;96782.06;4970132;28;20039;-57
2022/04/23 11:21:16;;;;;;;75.32;15.82;;;;;;;14.64;100.00;96779.44;4970982;28;20071;-57
2022/04/23 11:23:45;;;;;;;68.50;15.32;;;;;;;15.03;100.00;96785.16;4970270;28;20065;-58
2022/04/23 11:26:14;;;;;;;79.80;13.77;;;;;;;15.12;100.00;96779.19;4969872;28;20053;-59
2022/04/23 11:28:41;;;;;;;78.53;14.98;;;;;;;15.15;100.00;96788.63;4969762;28;20043;-58
2022/04/23 11:31:13;;;;;;;79.70;16.23;;;;;;;14.82;100.00;96779.81;4971279;28;20655;-57
2022/04/23 11:33:49;;;;;;;;;;;;;;;15.54;97.75;96789.88;4972981;28;20121;-57
2022/04/23 11:36:15;;;;;;;63.80;15.52;;;;;;;15.42;98.28;96785.63;4973843;28;19931;-57